This is the latest recevied weather packets stored in our database for station/object Kirchdorf. If no packets are shown the sender has not sent any weather packets the latest 10 day(s).
| Time | Temp. | Humidity | Pressure | Rain* | Wind** | Luminosity | Snow |
|---|---|---|---|---|---|---|---|
| 1787700730 | 15.56° C | 97% | 1015.9 hPa | 0 mm | - | - | - |
| 1787698933 | 16.11° C | 97% | 1015.9 hPa | 0 mm | - | - | - |
| 1787697131 | 16.11° C | 97% | 1015.8 hPa | 0 mm | - | - | - |
| 1787693532 | 16.11° C | 97% | 1015.8 hPa | 3.56 mm | - | - | - |
| 1787691731 | 16.11° C | 97% | 1015.6 hPa | 3.56 mm | - | - | - |
| 1787689931 | 16.67° C | 97% | 1015.7 hPa | 3.56 mm | - | - | - |
| 1787688130 | 16.67° C | 96% | 1015.9 hPa | 3.56 mm | - | - | - |
| 1787686331 | 16.67° C | 96% | 1015.4 hPa | 3.56 mm | - | - | - |
| 1787684531 | 16.67° C | 95% | 1015.4 hPa | 3.56 mm | - | - | - |
| 1787682731 | 16.67° C | 94% | 1015.4 hPa | 3.56 mm | - | - | - |
| 1787680931 | 17.78° C | 92% | 1015.1 hPa | 3.56 mm | - | - | - |
| 1787679131 | 18.33° C | 91% | 1014.8 hPa | 3.56 mm | - | - | - |
| 1787677331 | 17.78° C | 93% | 1014.9 hPa | 3.56 mm | - | - | - |
| 1787675531 | 18.33° C | 91% | 1014.7 hPa | 3.3 mm | - | - | - |
| 1787673731 | 18.89° C | 86% | 1014.7 hPa | 3.3 mm | - | - | - |
| 1787671933 | 20° C | 79% | 1014.4 hPa | 3.3 mm | - | - | - |
| 1787670130 | 19.44° C | 81% | 1014.2 hPa | 3.3 mm | - | - | - |
| 1787668332 | 19.44° C | 81% | 1014.1 hPa | 3.3 mm | - | - | - |
| 1787666530 | 19.44° C | 82% | 1014.2 hPa | 3.3 mm | - | - | - |
| 1787664730 | 20.56° C | 79% | 1014 hPa | 3.3 mm | - | - | - |
| 1787662930 | 19.44° C | 81% | 1014 hPa | 3.3 mm | - | - | - |
| 1787661130 | 17.78° C | 87% | 1014.2 hPa | 3.3 mm | - | - | - |
| 1787659331 | 17.22° C | 89% | 1014.2 hPa | 3.3 mm | - | - | - |
| 1787657530 | 17.78° C | 90% | 1014 hPa | 3.3 mm | - | - | - |
| 1787655730 | 16.67° C | 91% | 1013.8 hPa | 3.3 mm | - | - | - |
* Rain since midnight (hover to see other rain measurements)
** Current wind speed in m/s (hover to see current wind gust speed)